Time;durP1;ratioP1;P1;durP2;ratioP2;P2;SDS_P1;SDS_P2;PMS_P1;PMS_P2;Temp;Humidity;BMP_temperature;BMP_pressure;BME280_temperature;BME280_humidity;BME280_pressure;Samples;Min_cycle;Max_cycle;Signal;HPM_P1;HPM_P2
2021/03/26 00:02:11;;;;;;;116.28;36.40;;;;;;;-3.37;75.92;99677.75;1711032;82;20974;-73
2021/03/26 00:04:40;;;;;;;95.00;34.00;;;;;;;-3.41;76.20;99672.53;1755534;79;21144;-73
2021/03/26 00:07:10;;;;;;;97.53;32.48;;;;;;;-3.43;76.46;99677.82;1754176;81;21063;-73
2021/03/26 00:09:37;;;;;;;92.70;32.42;;;;;;;-3.46;76.42;99676.40;1740286;81;21211;-74
2021/03/26 00:12:13;;;;;;;83.45;31.48;;;;;;;-3.48;76.38;99683.06;1740208;81;20961;-73
2021/03/26 00:14:41;;;;;;;80.22;30.55;;;;;;;-3.49;76.42;99677.39;1740290;82;20941;-73
2021/03/26 00:17:10;;;;;;;95.65;33.05;;;;;;;-3.50;76.31;99677.91;1739791;82;21042;-74
2021/03/26 00:19:37;;;;;;;88.40;30.77;;;;;;;-3.49;76.09;99676.05;1738785;82;21465;-74
2021/03/26 00:22:05;;;;;;;83.25;31.00;;;;;;;-3.51;75.92;99684.33;1738694;82;21889;-73
2021/03/26 00:24:33;;;;;;;68.60;26.42;;;;;;;-3.54;75.76;99678.05;1738622;82;21025;-73
2021/03/26 00:27:01;;;;;;;71.17;26.12;;;;;;;-3.57;75.74;99683.86;1781393;80;21822;-73
2021/03/26 00:29:29;;;;;;;69.37;26.55;;;;;;;-3.61;75.75;99692.05;1760315;81;20921;-73
2021/03/26 00:31:56;;;;;;;79.42;29.75;;;;;;;-3.65;75.82;99692.19;1777167;80;21054;-73
2021/03/26 00:34:24;;;;;;;72.65;26.20;;;;;;;-3.62;75.48;99691.75;1760336;81;21249;-73
2021/03/26 00:36:51;;;;;;;65.67;25.50;;;;;;;-3.53;75.13;99682.91;1777011;80;21018;-73
2021/03/26 00:39:19;;;;;;;67.47;24.92;;;;;;;-3.55;74.95;99680.44;1760225;81;20941;-73
2021/03/26 00:41:48;;;;;;;69.72;27.10;;;;;;;-3.57;75.15;99681.18;1777068;80;20995;-73
2021/03/26 00:44:15;;;;;;;62.43;25.95;;;;;;;-3.60;75.48;99685.64;1760259;81;21060;-73
2021/03/26 00:46:43;;;;;;;67.53;27.48;;;;;;;-3.61;75.76;99674.61;1777189;80;22607;-73
2021/03/26 00:49:11;;;;;;;69.77;25.62;;;;;;;-3.60;75.96;99674.91;1760136;81;21013;-73
2021/03/26 00:51:39;;;;;;;71.28;25.02;;;;;;;-3.61;76.21;99677.30;1777083;80;20923;-73
2021/03/26 00:54:07;;;;;;;70.05;26.07;;;;;;;-3.62;76.46;99686.91;1760317;81;21661;-73
2021/03/26 00:56:35;;;;;;;75.08;27.70;;;;;;;-3.60;76.17;99689.67;1772424;80;21477;-72
2021/03/26 00:59:05;;;;;;;70.75;26.02;;;;;;;-3.55;75.45;99689.83;1765468;81;22225;-72
2021/03/26 01:01:32;;;;;;;62.98;23.85;;;;;;;-3.56;75.13;99685.50;1790068;80;21093;-72
2021/03/26 01:04:02;;;;;;;83.70;29.72;;;;;;;-3.54;75.20;99695.50;1790117;80;21099;-71
2021/03/26 01:06:30;;;;;;;81.12;29.40;;;;;;;-3.47;76.45;99687.39;1790001;80;21001;-73
2021/03/26 01:08:59;;;;;;;75.55;27.13;;;;;;;-3.44;75.71;99694.44;1758872;81;21055;-73
2021/03/26 01:11:33;;;;;;;82.37;27.77;;;;;;;-3.45;75.61;99696.01;1758957;81;22164;-73
2021/03/26 01:14:16;;;;;;;81.05;28.12;;;;;;;-3.45;75.49;99688.77;1757735;81;21066;-73
2021/03/26 01:16:44;;;;;;;68.97;24.43;;;;;;;-3.49;75.59;99687.61;1758712;81;20918;-73
2021/03/26 01:19:13;;;;;;;84.10;32.10;;;;;;;-3.52;76.04;99692.59;1758836;81;20926;-74
2021/03/26 01:21:41;;;;;;;79.72;31.97;;;;;;;-3.50;75.92;99692.67;1758988;81;21046;-74
2021/03/26 01:24:13;;;;;;;77.32;29.52;;;;;;;-3.43;75.36;99690.72;1758797;81;21660;-74
2021/03/26 01:26:42;;;;;;;81.47;31.37;;;;;;;-3.37;75.27;99692.52;1758793;81;21009;-75
2021/03/26 01:29:24;;;;;;;74.25;29.02;;;;;;;-3.38;75.20;99693.56;1758612;81;21152;-75
2021/03/26 01:31:53;;;;;;;64.97;26.85;;;;;;;-3.43;75.23;99696.61;1758356;81;21155;-73
2021/03/26 01:34:23;;;;;;;63.23;27.58;;;;;;;-3.51;75.43;99691.03;1758871;81;21132;-74
2021/03/26 01:36:53;;;;;;;70.32;27.40;;;;;;;-3.57;75.71;99696.46;1758572;81;21270;-74
2021/03/26 01:39:21;;;;;;;73.42;31.10;;;;;;;-3.60;76.01;99698.24;1758767;81;21021;-74
2021/03/26 01:41:50;;;;;;;80.17;29.48;;;;;;;-3.65;76.11;99696.22;1758327;81;21171;-73
2021/03/26 01:44:23;;;;;;;71.47;28.35;;;;;;;-3.69;76.39;99696.35;1758846;81;21076;-73
2021/03/26 01:46:51;;;;;;;75.75;29.85;;;;;;;-3.72;76.67;99699.47;1758937;81;21579;-73
2021/03/26 01:49:23;;;;;;;51.93;20.33;;;;;;;-3.78;77.02;99700.34;1759065;81;21559;-73
2021/03/26 01:51:54;;;;;;;64.82;25.72;;;;;;;-3.81;77.29;99706.15;1758411;81;20989;-73
2021/03/26 01:54:23;;;;;;;71.70;28.25;;;;;;;-3.84;77.49;99705.24;1758773;81;21571;-73
2021/03/26 01:56:54;;;;;;;68.62;26.90;;;;;;;-3.86;77.52;99702.78;1758831;81;21469;-73
2021/03/26 01:59:40;;;;;;;68.17;23.25;;;;;;;-3.85;77.75;99703.59;1758830;81;21093;-74
2021/03/26 02:02:20;;;;;;;55.20;23.05;;;;;;;-3.85;77.88;99707.62;1758839;81;21025;-74
2021/03/26 02:05:22;;;;;;;62.73;25.15;;;;;;;-3.83;78.41;99706.88;1890034;76;22759;-75
2021/03/26 02:07:52;;;;;;;59.08;22.95;;;;;;;-3.86;78.56;99710.00;1864441;76;20978;-75
2021/03/26 02:10:23;;;;;;;63.48;22.87;;;;;;;-3.88;78.78;99712.91;1875838;76;21383;-75
2021/03/26 02:13:01;;;;;;;58.23;24.27;;;;;;;-3.88;79.09;99714.77;1775406;80;21001;-73
2021/03/26 02:15:45;;;;;;;59.20;23.57;;;;;;;-3.88;79.34;99720.95;1813374;79;21053;-73
2021/03/26 02:18:19;;;;;;;55.25;23.22;;;;;;;-3.89;79.46;99722.51;1814069;79;20919;-73
2021/03/26 02:21:07;;;;;;;61.20;25.17;;;;;;;-3.92;79.68;99719.74;1788826;79;21071;-74
2021/03/26 02:23:36;;;;;;;48.85;20.80;;;;;;;-3.93;79.79;99723.46;1806522;79;21879;-73
2021/03/26 02:26:26;;;;;;;96.65;36.58;;;;;;;-3.92;80.15;99726.97;1814357;79;21617;-74
2021/03/26 02:28:54;;;;;;;108.07;39.73;;;;;;;-3.92;80.18;99731.81;1813718;79;20954;-74
2021/03/26 02:31:29;;;;;;;98.33;34.98;;;;;;;-3.89;79.92;99727.35;1782654;80;21568;-74
2021/03/26 02:33:59;;;;;;;88.65;34.65;;;;;;;-3.85;79.27;99727.73;1814234;79;20970;-74
2021/03/26 02:36:38;;;;;;;93.30;33.42;;;;;;;-3.85;78.96;99734.45;1790814;80;21814;-75
2021/03/26 02:39:14;;;;;;;92.72;33.85;;;;;;;-3.86;78.54;99732.28;1814172;79;21180;-75
2021/03/26 02:41:46;;;;;;;93.27;32.75;;;;;;;-3.88;78.37;99734.87;1790846;80;21101;-75
2021/03/26 02:44:43;;;;;;;107.03;36.75;;;;;;;-3.89;78.53;99737.26;1823409;78;21073;-76
2021/03/26 02:47:31;;;;;;;95.32;33.83;;;;;;;-3.87;78.89;99741.37;1814376;79;21125;-74
2021/03/26 02:50:46;;;;;;;90.80;33.08;;;;;;;-3.80;78.73;99738.12;1780498;80;21800;-74
2021/03/26 02:53:48;;;;;;;95.12;32.90;;;;;;;-3.79;78.64;99740.28;1780524;80;21478;-74
2021/03/26 02:56:49;;;;;;;89.70;31.60;;;;;;;-3.82;78.70;99742.06;1764661;80;20939;-75
2021/03/26 02:59:25;;;;;;;97.57;33.92;;;;;;;-3.87;78.67;99747.25;1780579;80;21490;-74
2021/03/26 03:01:55;;;;;;;92.22;33.65;;;;;;;-3.85;79.09;99750.02;1780540;80;20923;-74
2021/03/26 03:04:30;;;;;;;76.42;29.55;;;;;;;-3.85;79.11;99750.54;1754152;80;21202;-74
2021/03/26 03:07:06;;;;;;;84.65;31.07;;;;;;;-3.85;79.18;99751.88;1763504;81;20954;-74
2021/03/26 03:09:44;;;;;;;99.40;41.83;;;;;;;-3.79;79.11;99749.16;1857736;76;27852;-73
2021/03/26 03:12:29;;;;;;;85.50;32.90;;;;;;;-3.80;78.81;99748.85;1838685;78;21091;-73
2021/03/26 03:15:03;;;;;;;81.25;32.88;;;;;;;-3.81;78.74;99751.23;1841578;78;21753;-72
2021/03/26 03:17:52;;;;;;;84.50;32.58;;;;;;;-3.86;78.90;99751.58;1841478;78;20932;-71
2021/03/26 03:20:35;;;;;;;76.72;31.70;;;;;;;-3.91;79.18;99751.41;1841510;78;21447;-71
2021/03/26 03:23:30;;;;;;;83.22;29.92;;;;;;;-3.97;79.26;99750.93;1841721;77;20920;-70
2021/03/26 03:26:28;;;;;;;73.42;28.45;;;;;;;-4.01;79.48;99757.24;1839091;78;21015;-69
2021/03/26 03:29:13;;;;;;;74.55;28.83;;;;;;;-4.07;79.67;99756.80;1841634;78;22358;-70
2021/03/26 03:32:21;;;;;;;66.60;25.30;;;;;;;-4.10;79.93;99759.39;1841520;78;21091;-71
2021/03/26 03:35:08;;;;;;;64.92;24.32;;;;;;;-4.13;80.06;99763.84;1841523;77;20940;-72
2021/03/26 03:37:58;;;;;;;73.87;25.85;;;;;;;-4.15;80.20;99759.21;1841608;78;21016;-71
2021/03/26 03:40:53;;;;;;;66.95;24.12;;;;;;;-4.16;80.32;99766.13;1841602;78;21000;-72
2021/03/26 03:43:53;;;;;;;62.95;23.50;;;;;;;-4.18;80.49;99766.86;1831904;76;21513;-72
2021/03/26 03:46:26;;;;;;;62.23;23.22;;;;;;;-4.22;80.78;99764.30;1813896;78;20960;-73
2021/03/26 03:49:24;;;;;;;59.35;21.10;;;;;;;-4.25;81.04;99764.22;1808492;79;21570;-72
2021/03/26 03:52:31;;;;;;;62.05;24.43;;;;;;;-4.22;81.16;99766.47;1808656;79;20932;-71
2021/03/26 03:55:23;;;;;;;58.10;21.42;;;;;;;-4.22;81.14;99765.13;1808537;79;21554;-71
2021/03/26 03:58:13;;;;;;;50.50;21.62;;;;;;;-4.20;81.20;99768.94;1808496;79;21630;-72
2021/03/26 04:00:47;;;;;;;62.58;22.13;;;;;;;-4.21;81.22;99769.45;1808514;79;20948;-73
2021/03/26 04:03:30;;;;;;;55.08;21.23;;;;;;;-4.21;81.45;99769.45;1815591;76;21592;-73
2021/03/26 04:06:11;;;;;;;52.53;20.40;;;;;;;-4.21;81.45;99772.13;1773455;79;20943;-73
2021/03/26 04:08:54;;;;;;;60.52;22.95;;;;;;;-4.21;81.43;99772.13;1833759;77;20901;-72
2021/03/26 04:11:54;;;;;;;54.27;20.63;;;;;;;-4.20;81.44;99775.64;1808812;79;21347;-72
2021/03/26 04:14:50;;;;;;;50.28;20.37;;;;;;;-4.14;81.48;99778.80;1872840;75;22787;-71
2021/03/26 04:17:31;;;;;;;51.90;21.33;;;;;;;-4.18;81.61;99783.77;1827072;78;20952;-74
2021/03/26 04:20:06;;;;;;;57.08;21.00;;;;;;;-4.14;82.04;99786.33;1818757;78;21494;-73
2021/03/26 04:22:40;;;;;;;51.08;20.00;;;;;;;-4.09;82.24;99788.36;1808566;79;20921;-74
2021/03/26 04:25:24;;;;;;;53.85;21.62;;;;;;;-4.05;82.40;99781.02;1790448;77;20973;-74
2021/03/26 04:28:21;;;;;;;61.40;21.50;;;;;;;-3.98;82.48;99791.67;1864415;77;20886;-74
2021/03/26 04:30:56;;;;;;;61.25;22.93;;;;;;;-3.89;82.67;99792.25;1861049;77;21469;-74
2021/03/26 04:33:28;;;;;;;65.60;23.98;;;;;;;-3.81;82.67;99786.63;1805500;78;21319;-74
2021/03/26 04:35:56;;;;;;;66.30;25.88;;;;;;;-3.72;82.63;99788.83;1809966;78;21027;-74
2021/03/26 04:38:37;;;;;;;66.25;24.00;;;;;;;-3.62;82.42;99788.88;1777737;79;21027;-74
2021/03/26 04:41:12;;;;;;;61.63;23.87;;;;;;;-3.52;82.23;99795.40;1808510;79;21016;-75
2021/03/26 04:43:49;;;;;;;63.68;24.75;;;;;;;-3.40;82.08;99801.67;1781553;79;21106;-75
2021/03/26 04:46:51;;;;;;;69.45;24.95;;;;;;;-3.26;81.95;99797.55;1821907;78;21280;-74
2021/03/26 04:49:40;;;;;;;68.45;26.17;;;;;;;-3.12;81.63;99798.55;1798221;78;20986;-74
2021/03/26 04:52:33;;;;;;;72.95;26.42;;;;;;;-2.95;81.19;99798.81;1795701;80;21014;-74
2021/03/26 04:55:17;;;;;;;62.48;23.18;;;;;;;-2.81;80.53;99798.95;1794904;80;21111;-75
2021/03/26 04:58:05;;;;;;;61.37;22.93;;;;;;;-2.60;80.05;99804.41;1872833;76;22752;-73
2021/03/26 05:00:59;;;;;;;58.20;21.40;;;;;;;-2.51;79.64;99802.25;1841011;78;20956;-73
2021/03/26 05:03:37;;;;;;;50.38;20.05;;;;;;;-2.34;79.35;99805.45;1840241;77;21633;-74
2021/03/26 05:06:18;;;;;;;53.20;20.15;;;;;;;-2.21;78.83;99804.97;1841115;77;21071;-75
2021/03/26 05:08:51;;;;;;;56.20;20.48;;;;;;;-2.10;78.21;99805.02;1841530;78;21488;-74
2021/03/26 05:11:34;;;;;;;53.28;20.45;;;;;;;-1.96;78.38;99802.16;1841766;78;21122;-75
2021/03/26 05:14:06;;;;;;;;;;;;;;;-1.82;78.38;99806.31;1842122;76;21633;-74
2021/03/26 05:17:00;;;;;;;46.95;19.95;;;;;;;-1.69;77.62;99804.75;1823216;76;21325;-75
2021/03/26 05:19:53;;;;;;;54.42;18.75;;;;;;;-1.59;77.99;99809.58;1814956;78;21031;-74
2021/03/26 05:22:46;;;;;;;45.65;19.25;;;;;;;-1.46;77.91;99809.38;1808636;79;21133;-74
2021/03/26 05:25:40;;;;;;;42.08;18.42;;;;;;;-1.33;77.41;99803.79;1804278;79;21066;-74
2021/03/26 05:28:21;;;;;;;37.90;16.50;;;;;;;-1.19;76.99;99805.73;1792074;79;21118;-74
2021/03/26 05:30:51;;;;;;;47.88;17.87;;;;;;;-1.08;77.66;99804.90;1777891;79;21188;-74
2021/03/26 05:33:42;;;;;;;48.85;18.82;;;;;;;-0.94;77.34;99809.53;1807755;79;21019;-73
2021/03/26 05:36:21;;;;;;;49.58;19.65;;;;;;;-0.84;77.07;99811.13;1779480;79;21542;-74
2021/03/26 05:39:15;;;;;;;52.33;19.87;;;;;;;-0.71;77.25;99815.75;1808366;79;21031;-75
2021/03/26 05:42:18;;;;;;;55.90;21.15;;;;;;;-0.56;76.54;99816.58;1807468;79;21162;-75
2021/03/26 05:45:09;;;;;;;46.45;20.60;;;;;;;-0.45;76.08;99821.67;1805828;79;21483;-75
2021/03/26 05:48:17;;;;;;;54.48;21.15;;;;;;;-0.35;75.86;99820.55;1808151;79;21106;-75
2021/03/26 05:51:15;;;;;;;49.23;20.82;;;;;;;-0.22;75.55;99825.67;1808358;79;21487;-74
2021/03/26 05:54:33;;;;;;;45.85;20.95;;;;;;;-0.12;75.53;99822.37;1808402;79;21510;-74
2021/03/26 05:57:32;;;;;;;50.17;20.55;;;;;;;0.10;75.38;99827.90;1873751;75;22703;-74
2021/03/26 06:00:53;;;;;;;49.67;21.77;;;;;;;0.16;75.23;99831.81;1841288;78;20928;-74
2021/03/26 06:03:57;;;;;;;40.10;17.50;;;;;;;0.30;75.20;99833.70;1787412;78;21430;-75
2021/03/26 06:07:02;;;;;;;29.37;12.82;;;;;;;0.50;75.02;99833.25;1841590;77;20956;-74
2021/03/26 06:10:20;;;;;;;41.88;17.02;;;;;;;0.71;74.37;99834.40;1805361;78;20901;-74
2021/03/26 06:13:47;;;;;;;48.87;19.90;;;;;;;0.86;74.13;99827.38;1841729;78;21554;-74
2021/03/26 06:17:03;;;;;;;37.35;15.83;;;;;;;1.02;73.69;99831.14;1841636;78;21110;-74
2021/03/26 06:20:37;;;;;;;37.15;15.78;;;;;;;1.20;73.13;99832.21;1735763;82;22452;-75
2021/03/26 06:23:41;;;;;;;31.85;14.90;;;;;;;1.40;71.95;99830.88;1873723;76;22526;-74
2021/03/26 06:26:52;;;;;;;36.63;15.48;;;;;;;1.43;72.17;99842.55;1840443;78;20932;-74
2021/03/26 06:29:53;;;;;;;32.88;13.90;;;;;;;1.57;71.93;99843.84;1814063;78;21865;-73
2021/03/26 06:32:52;;;;;;;26.70;13.43;;;;;;;1.74;71.75;99841.88;1820689;78;20947;-74
2021/03/26 06:35:58;;;;;;;35.63;14.93;;;;;;;1.91;71.30;99839.13;1837500;78;21171;-74
2021/03/26 06:38:58;;;;;;;30.20;14.10;;;;;;;2.08;70.92;99835.81;1816330;78;20976;-74
2021/03/26 06:41:58;;;;;;;32.05;15.30;;;;;;;2.20;69.91;99833.80;1808641;78;21033;-74
2021/03/26 06:45:05;;;;;;;35.50;16.42;;;;;;;2.36;69.80;99832.04;1808566;79;21003;-74
2021/03/26 06:48:02;;;;;;;27.73;12.63;;;;;;;2.54;69.08;99831.69;1806439;79;20932;-74
2021/03/26 06:51:13;;;;;;;27.58;11.85;;;;;;;2.68;68.09;99835.34;1776155;80;20952;-74
2021/03/26 06:53:53;;;;;;;32.33;13.50;;;;;;;2.76;67.54;99838.41;1801806;79;20929;-74
2021/03/26 06:56:59;;;;;;;26.80;12.35;;;;;;;2.86;67.36;99843.92;1806924;79;20917;-74
2021/03/26 07:00:08;;;;;;;30.15;13.88;;;;;;;2.96;66.83;99839.09;1806967;79;21538;-74
2021/03/26 07:03:15;;;;;;;32.17;14.55;;;;;;;3.04;66.67;99841.33;1806709;79;21582;-74
2021/03/26 07:06:19;;;;;;;33.10;14.70;;;;;;;3.18;65.49;99846.59;1806886;79;20921;-73
2021/03/26 07:09:09;;;;;;;31.65;14.68;;;;;;;3.29;64.84;99840.17;1806992;79;21032;-73
2021/03/26 07:12:04;;;;;;;32.90;14.35;;;;;;;3.43;64.79;99849.22;1807014;79;21129;-73
2021/03/26 07:14:57;;;;;;;37.23;16.65;;;;;;;3.62;64.90;99844.43;1806855;79;21483;-74
2021/03/26 07:18:04;;;;;;;30.40;14.10;;;;;;;3.83;63.65;99838.57;1807153;79;21628;-73
2021/03/26 07:20:57;;;;;;;28.98;14.50;;;;;;;4.00;64.27;99839.73;1806269;79;20933;-74
2021/03/26 07:23:49;;;;;;;35.35;16.50;;;;;;;4.27;63.38;99838.18;1806829;79;21023;-74
2021/03/26 07:26:28;;;;;;;34.05;14.28;;;;;;;4.70;61.87;99840.16;1807054;79;20984;-74
2021/03/26 07:29:29;;;;;;;33.95;15.53;;;;;;;5.38;61.41;99844.23;1806984;78;22722;-74
2021/03/26 07:32:31;;;;;;;30.90;14.07;;;;;;;6.15;59.32;99844.85;1806801;78;21609;-74
2021/03/26 07:35:34;;;;;;;40.80;15.45;;;;;;;7.00;56.31;99845.94;1806441;79;20992;-74
2021/03/26 07:38:41;;;;;;;26.62;12.85;;;;;;;7.59;54.09;99847.84;1806629;79;20881;-74
2021/03/26 07:41:41;;;;;;;34.63;13.80;;;;;;;8.16;52.00;99852.12;1806289;79;21107;-74
2021/03/26 07:44:53;;;;;;;29.90;14.03;;;;;;;8.54;50.89;99843.45;1806347;79;21361;-73
2021/03/26 07:48:04;;;;;;;21.37;11.73;;;;;;;8.74;49.00;99846.43;1765828;79;20936;-74
2021/03/26 07:51:14;;;;;;;26.57;13.35;;;;;;;9.09;49.06;99850.55;1806245;79;21479;-73
2021/03/26 07:54:00;;;;;;;27.58;14.73;;;;;;;9.31;47.15;99849.89;1806254;79;20933;-73
2021/03/26 07:57:13;;;;;;;27.77;14.38;;;;;;;9.70;47.33;99853.59;1888737;76;22855;-73
2021/03/26 07:59:58;;;;;;;22.62;12.53;;;;;;;9.99;47.13;99860.15;1775382;80;20942;-73
2021/03/26 08:02:40;;;;;;;;;;;;;;;10.41;44.83;99857.09;1776227;81;21371;-74
2021/03/26 08:05:43;;;;;;;23.42;13.15;;;;;;;10.59;43.78;99856.15;1793047;80;20111;-74
2021/03/26 08:08:43;;;;;;;20.37;11.55;;;;;;;10.78;42.66;99852.45;1666513;85;21115;-74
2021/03/26 08:11:49;;;;;;;22.65;12.85;;;;;;;11.10;41.52;99856.89;1716621;83;21623;-74
2021/03/26 08:14:39;;;;;;;26.02;12.98;;;;;;;11.14;41.87;99860.08;1766140;80;20923;-74
2021/03/26 08:17:49;;;;;;;26.95;12.80;;;;;;;11.36;41.40;99855.71;1774073;81;20990;-74
2021/03/26 08:20:27;;;;;;;23.25;12.15;;;;;;;11.49;41.23;99861.70;1775285;80;21041;-74
2021/03/26 08:23:33;;;;;;;23.07;10.58;;;;;;;11.78;41.07;99863.97;1775495;80;21465;-74
2021/03/26 08:26:44;;;;;;;21.50;11.60;;;;;;;11.93;39.14;99858.63;1774036;81;20990;-74
2021/03/26 08:29:17;;;;;;;27.77;12.07;;;;;;;11.98;39.94;99867.55;1775139;80;21002;-74
2021/03/26 08:32:03;;;;;;;24.57;10.35;;;;;;;12.22;39.91;99865.77;1774028;81;21374;-74
2021/03/26 08:34:45;;;;;;;19.32;10.25;;;;;;;12.21;38.71;99872.39;1775371;80;21065;-74
2021/03/26 08:37:51;;;;;;;20.00;11.55;;;;;;;12.23;38.58;99872.89;1774159;81;20892;-74
2021/03/26 08:40:44;;;;;;;17.52;10.50;;;;;;;12.43;38.81;99871.49;1775158;80;21018;-74
2021/03/26 08:43:12;;;;;;;24.50;11.30;;;;;;;12.69;37.63;99868.80;1773992;81;21473;-74
2021/03/26 08:45:47;;;;;;;19.05;10.58;;;;;;;12.78;38.40;99862.14;1723774;80;21821;-74
2021/03/26 08:48:23;;;;;;;21.10;11.35;;;;;;;13.01;37.70;99876.59;1736613;81;20940;-74
2021/03/26 08:51:08;;;;;;;19.87;11.08;;;;;;;12.99;36.83;99871.96;1775201;80;21006;-74
2021/03/26 08:54:14;;;;;;;21.00;11.63;;;;;;;13.02;37.37;99869.13;1743318;82;20936;-74
2021/03/26 08:57:31;;;;;;;18.95;10.40;;;;;;;13.24;36.92;99868.19;1775230;80;20998;-73
2021/03/26 09:00:16;;;;;;;20.92;10.70;;;;;;;13.44;35.76;99873.00;1743001;82;21371;-74
2021/03/26 09:03:15;;;;;;;20.82;10.60;;;;;;;13.40;35.49;99871.47;1816514;79;20934;-73
2021/03/26 09:06:19;;;;;;;19.73;9.80;;;;;;;13.51;37.22;99872.75;1814017;79;21120;-74
2021/03/26 09:09:46;;;;;;;22.42;10.08;;;;;;;13.68;36.19;99862.25;1774879;80;21039;-74
2021/03/26 09:12:52;;;;;;;20.32;10.38;;;;;;;13.88;35.29;99874.50;1722219;83;21079;-74
2021/03/26 09:15:40;;;;;;;20.50;10.75;;;;;;;13.92;34.64;99864.99;1722152;83;21878;-74
2021/03/26 09:18:36;;;;;;;16.90;9.40;;;;;;;14.01;35.26;99865.77;1873711;76;22736;-74
2021/03/26 09:21:32;;;;;;;18.65;9.65;;;;;;;14.23;35.27;99865.52;1841842;78;21498;-74
2021/03/26 09:24:27;;;;;;;17.65;10.05;;;;;;;14.52;32.74;99864.72;1833119;77;21562;-74
2021/03/26 09:27:14;;;;;;;18.12;9.85;;;;;;;14.43;32.35;99868.94;1841676;78;20940;-74
2021/03/26 09:30:10;;;;;;;24.70;10.43;;;;;;;14.32;32.52;99873.19;1841687;78;20964;-74
2021/03/26 09:32:58;;;;;;;17.55;10.03;;;;;;;14.29;32.20;99871.66;1841631;78;21546;-72
2021/03/26 09:35:31;;;;;;;20.27;9.65;;;;;;;14.10;32.04;99870.69;1841734;78;20881;-74
2021/03/26 09:38:11;;;;;;;19.25;10.68;;;;;;;13.79;32.32;99870.42;1812030;78;21356;-74
2021/03/26 09:41:00;;;;;;;15.72;9.23;;;;;;;13.75;33.51;99873.59;1841632;78;20975;-74
2021/03/26 09:43:51;;;;;;;15.55;9.15;;;;;;;13.97;32.88;99878.61;1841456;78;20976;-74
2021/03/26 09:46:50;;;;;;;21.82;11.20;;;;;;;14.54;34.36;99874.86;1872410;76;27913;-75
2021/03/26 09:49:51;;;;;;;19.20;9.88;;;;;;;14.95;31.75;99869.16;1823852;77;20991;-75
2021/03/26 09:52:29;;;;;;;18.17;8.15;;;;;;;15.19;30.44;99877.55;1816637;79;22470;-75
2021/03/26 09:55:06;;;;;;;14.90;7.50;;;;;;;15.40;29.83;99875.58;1816711;79;20943;-75
2021/03/26 09:57:54;;;;;;;10.18;6.72;;;;;;;15.57;29.66;99871.86;1816719;79;21466;-75
2021/03/26 10:00:51;;;;;;;13.03;7.00;;;;;;;15.61;27.53;99870.58;1816385;79;21088;-74
2021/03/26 10:03:52;;;;;;;11.45;5.50;;;;;;;15.48;28.17;99875.26;1816658;79;20948;-74
2021/03/26 10:07:01;;;;;;;9.70;5.17;;;;;;;15.60;26.18;99864.23;1812231;79;22227;-74
2021/03/26 10:10:01;;;;;;;11.83;5.92;;;;;;;15.81;24.97;99863.59;1816573;79;20943;-74
2021/03/26 10:12:23;;;;;;;8.55;5.12;;;;;;;15.88;24.76;99865.81;1814860;78;20985;-73
2021/03/26 10:15:00;;;;;;;10.32;6.17;;;;;;;15.84;24.00;99857.38;1816681;79;21561;-73
2021/03/26 10:17:51;;;;;;;18.67;8.73;;;;;;;15.60;24.82;99864.23;1816739;79;20983;-74
2021/03/26 10:20:53;;;;;;;10.82;6.40;;;;;;;15.53;24.56;99857.88;1815481;78;21251;-74
2021/03/26 10:23:44;;;;;;;10.85;5.55;;;;;;;15.42;25.31;99861.41;1816710;78;21565;-74
2021/03/26 10:26:38;;;;;;;13.75;5.80;;;;;;;15.47;24.01;99859.81;1816690;79;21130;-73
2021/03/26 10:29:28;;;;;;;9.95;5.80;;;;;;;15.35;25.04;99861.14;1816622;79;20928;-73
2021/03/26 10:31:55;;;;;;;11.60;5.50;;;;;;;15.32;25.23;99857.67;1816762;78;20935;-73
2021/03/26 10:34:36;;;;;;;10.72;5.72;;;;;;;15.50;24.64;99857.17;1788171;79;21393;-73
2021/03/26 10:37:21;;;;;;;9.28;4.90;;;;;;;15.59;23.69;99855.73;1816565;79;20959;-74
2021/03/26 10:40:28;;;;;;;11.93;6.10;;;;;;;15.56;23.80;99856.38;1816627;78;20976;-73
2021/03/26 10:43:29;;;;;;;19.02;7.92;;;;;;;15.78;24.45;99850.45;1785868;79;20943;-73
2021/03/26 10:46:15;;;;;;;11.88;6.42;;;;;;;16.21;25.69;99854.63;1818563;78;20935;-75
2021/03/26 10:49:09;;;;;;;13.98;6.60;;;;;;;16.62;25.36;99852.19;1819746;77;21358;-73
2021/03/26 10:51:53;;;;;;;13.90;7.92;;;;;;;16.82;24.02;99851.81;1819675;78;21045;-73
2021/03/26 10:54:33;;;;;;;16.02;8.00;;;;;;;16.65;23.06;99847.95;1819779;78;20928;-74
2021/03/26 10:57:37;;;;;;;13.43;7.03;;;;;;;16.50;24.85;99854.97;1817872;78;21007;-74
2021/03/26 11:00:34;;;;;;;12.85;6.90;;;;;;;16.44;24.29;99855.78;1819175;78;20912;-75
2021/03/26 11:03:10;;;;;;;19.20;7.22;;;;;;;16.46;25.28;99855.44;1819197;78;21416;-76
2021/03/26 11:05:46;;;;;;;18.15;7.92;;;;;;;16.61;25.29;99855.31;1819172;78;21585;-75
2021/03/26 11:08:42;;;;;;;16.75;7.92;;;;;;;16.72;24.55;99857.88;1819199;78;21035;-75
2021/03/26 11:11:42;;;;;;;10.60;6.20;;;;;;;16.81;25.17;99856.55;1819216;78;21007;-75
2021/03/26 11:14:43;;;;;;;8.63;4.70;;;;;;;16.64;22.89;99851.84;1819288;78;21558;-75
2021/03/26 11:17:27;;;;;;;9.05;5.05;;;;;;;16.06;22.67;99852.57;1819194;78;22419;-75
2021/03/26 11:20:34;;;;;;;14.43;6.92;;;;;;;16.00;25.13;99848.41;1819101;78;20939;-75
2021/03/26 11:23:21;;;;;;;12.85;7.40;;;;;;;16.25;23.16;99849.20;1818847;78;21039;-75
2021/03/26 11:25:56;;;;;;;15.58;6.87;;;;;;;16.24;23.52;99848.40;1813643;78;20987;-75
2021/03/26 11:28:58;;;;;;;13.32;6.22;;;;;;;16.47;24.99;99845.97;1791605;78;20904;-74
2021/03/26 11:31:42;;;;;;;9.65;5.08;;;;;;;16.71;22.63;99842.39;1819244;78;21185;-74
2021/03/26 11:34:35;;;;;;;10.58;5.95;;;;;;;16.67;21.95;99841.48;1819114;78;20991;-74
2021/03/26 11:37:23;;;;;;;8.65;4.35;;;;;;;16.43;21.61;99837.55;1819144;78;20968;-74
2021/03/26 11:40:06;;;;;;;7.78;4.62;;;;;;;16.25;21.34;99833.97;1817967;78;20991;-74
2021/03/26 11:42:52;;;;;;;9.65;5.80;;;;;;;16.18;23.07;99829.00;1819324;78;20936;-76
2021/03/26 11:45:31;;;;;;;13.25;6.22;;;;;;;16.35;23.91;99829.35;1818240;78;22111;-75
2021/03/26 11:48:14;;;;;;;10.10;5.72;;;;;;;16.60;23.92;99831.52;1815841;77;21470;-76
2021/03/26 11:50:55;;;;;;;10.32;4.33;;;;;;;16.78;23.08;99825.95;1815141;79;20928;-75
2021/03/26 11:53:40;;;;;;;9.10;4.67;;;;;;;16.81;22.12;99830.22;1809071;79;20951;-75
2021/03/26 11:56:18;;;;;;;8.53;5.50;;;;;;;16.93;22.92;99827.98;1815992;79;20951;-76
2021/03/26 11:59:39;;;;;;;9.73;5.00;;;;;;;17.15;22.71;99826.06;1815991;79;21185;-76
2021/03/26 12:02:36;;;;;;;13.62;6.37;;;;;;;17.45;23.81;99822.32;1815876;79;20932;-76
2021/03/26 12:05:23;;;;;;;11.70;5.10;;;;;;;17.55;22.93;99819.61;1816048;79;21475;-75
2021/03/26 12:08:17;;;;;;;24.72;11.12;;;;;;;17.54;22.69;99813.83;1811459;79;20980;-76
2021/03/26 12:11:01;;;;;;;27.42;12.75;;;;;;;17.59;22.97;99816.35;1816038;78;21463;-76
2021/03/26 12:13:57;;;;;;;10.50;5.75;;;;;;;17.52;23.83;99817.55;1816079;78;25159;-76
2021/03/26 12:16:28;;;;;;;8.85;5.30;;;;;;;17.35;22.91;99811.73;1815908;79;20936;-76
2021/03/26 12:19:17;;;;;;;11.60;6.78;;;;;;;17.02;23.47;99813.41;1815957;79;20928;-76
2021/03/26 12:22:15;;;;;;;9.45;6.22;;;;;;;17.08;25.43;99813.38;1800149;79;20940;-76
2021/03/26 12:27:46;;;;;;;10.32;5.47;;;;;;;17.66;24.86;99797.14;1873643;75;22843;-76
2021/03/26 12:30:28;;;;;;;10.28;6.05;;;;;;;17.82;23.60;99806.88;1841721;78;20953;-76
2021/03/26 12:33:08;;;;;;;15.98;5.97;;;;;;;17.94;23.73;99803.17;1833556;76;22661;-76
2021/03/26 12:35:59;;;;;;;10.58;5.75;;;;;;;17.92;24.80;99801.33;1824067;76;20943;-76
2021/03/26 12:38:44;;;;;;;12.00;5.42;;;;;;;17.94;24.20;99801.78;1798694;78;22021;-75
2021/03/26 12:41:29;;;;;;;10.23;5.78;;;;;;;17.88;24.65;99800.47;1817242;78;20976;-78
2021/03/26 12:44:29;;;;;;;6.92;4.67;;;;;;;18.05;24.52;99799.49;1817087;78;20908;-74
2021/03/26 12:47:01;;;;;;;8.88;4.87;;;;;;;18.27;24.35;99795.27;1826595;76;21621;-76
2021/03/26 12:49:38;;;;;;;27.13;15.63;;;;;;;18.36;24.57;99804.80;1805426;78;20905;-75
2021/03/26 12:52:28;;;;;;;10.93;5.80;;;;;;;18.33;25.33;99803.55;1792713;78;21436;-76
2021/03/26 12:55:16;;;;;;;9.10;5.90;;;;;;;18.29;24.10;99797.68;1792623;78;20984;-76
2021/03/26 12:58:05;;;;;;;16.40;10.25;;;;;;;18.43;24.45;99799.41;1792557;80;21495;-75